Detalii statie AGROSAMI SACALAZ [00001988]

Toti senzorii

Date Temperatura solului [C]Precipitatii [mm]Voltaj baterie [mV]Leaf Wetness [Min]HC Air temperature [C]HC Relative humidity [%]Punctul de roua [C]
medieminmaxsumaultimatimpmedieminmaxmediemediemin
2020-05-25 23:00:00 0 6972 12.88 12.3 13.11 6.34 0
2020-05-26 00:00:00 0 6972 12.69 12.43 12.87 3.52 0
2020-05-26 01:00:00 0 6942 12.1 11.8 12.54 6.68 -25.2 -42.3
2020-05-26 02:00:00 1 6942 11.13 10.76 11.72 0.64 -5.2 0
2020-05-26 03:00:00 0 6932 10.88 10.83 10.95 0 0 0
2020-05-26 04:00:00 0 6932 10.76 10.33 11 0 0 0
2020-05-26 05:00:00 0 6932 10.18 10.13 10.27 0 0 0
2020-05-26 06:00:00 0.4 6932 10.24 10.15 10.33 0 0 0
2020-05-26 07:00:00 0 6904 10.54 10.38 10.68 3.7 -1.8 0
2020-05-26 08:00:00 0 7020 10.99 10.64 11.32 0 0 0
2020-05-26 09:00:00 0 7206 11.82 11.12 12.67 0 0 0
2020-05-26 10:00:00 0 7294 12.68 11.81 15.39 0 0 0
2020-05-26 11:00:00 0 7314 17.29 13.54 19.07 0 0 0
2020-05-26 12:00:00 0 7324 18.56 16.79 20.1 0 0 0
2020-05-26 13:00:00 0 7314 19.97 18.77 20.96 0 0 0
2020-05-26 14:00:00 0 7314 19.59 18.11 21.94 0 0 0
2020-05-26 15:00:00 0 7324 20.3 18.84 22.06 0 0 0
2020-05-26 16:00:00 0 7324 21.61 19.87 22.71 0 0 0
2020-05-26 17:00:00 0 7236 17.32 15.17 22.29 0 0 0
2020-05-26 18:00:00 0 7226 15.73 15.13 16.49 0 0 0
2020-05-26 19:00:00 0 7314 17.09 16.58 17.45 0 0 0
2020-05-26 20:00:00 0 7158 17.17 16.65 17.46 0 0 0
2020-05-26 21:00:00 0 7020 15.06 13.88 16.31 0 0 0
2020-05-26 22:00:00 0 7010 13.42 13.1 13.82 0 0 0
2020-05-26 23:00:00 2.6 6992 11.72 10.72 13.98 0 0 0
2020-05-27 00:00:00 0 6992 10.63 10.54 10.79 0 0 0
2020-05-27 01:00:00 0 6962 10.22 9.64 10.65 0 0 0
2020-05-27 02:00:00 0 6972 9.04 8.63 9.62 0 0 0
2020-05-27 03:00:00 0 6962 8.77 8.47 8.97 0 0 0
2020-05-27 04:00:00 0 6942 7.87 7.43 8.4 0 0 0
2020-05-27 05:00:00 0 6942 7.29 7.06 7.49 0 0 0
2020-05-27 06:00:00 0 6922 7.04 6.72 7.67 0 0 0
2020-05-27 07:00:00 0 6932 8.28 7.79 8.78 0 0 0
2020-05-27 08:00:00 0 7088 9.68 8.95 10.32 0 0 0
2020-05-27 09:00:00 0 7314 10.88 10.32 11.26 0 0 0
2020-05-27 10:00:00 0 7314 11.62 11.3 11.94 0 0 0
2020-05-27 11:00:00 0 7324 13.42 11.91 15.57 0 0 0
2020-05-27 12:00:00 0 7324 16.71 15.09 17.94 0 0 0
2020-05-27 13:00:00 0 7324 20.23 17.82 22.65 0 0 0
2020-05-27 14:00:00 0 7314 22.03 20.83 23 0 0 0
2020-05-27 15:00:00 0 7324 22.17 21.13 23.16 0 0 0
2020-05-27 16:00:00 0 7314 22.28 20.77 23.82 0 0 0
2020-05-27 17:00:00 0 7324 22.57 21.39 23.29 0 0 0
2020-05-27 18:00:00 0 7314 22.28 21.61 23.12 0 0 0
2020-05-27 19:00:00 0 7274 21.13 20.68 21.66 0 0 0
2020-05-27 20:00:00 0 7314 19.64 18.48 20.73 0 0 0
2020-05-27 21:00:00 0 7060 17.54 16.54 18.15 0 0 0
2020-05-27 22:00:00 0 7020 15.14 14.63 16.1 0 0 0